Main page
METAR-TAF:

METAR-TAF

Airports :

Nuuk Airport

Nuuk, Greenland

latitude: 64-10N, longitude: 051-45W, elevation: 80 m

Current weather observation

The report was made 29 minutes ago, at 01:50 UTC
Wind 9 kt from the North
Temperature -7°C
Humidity 67%
Pressure 1013 hPa
Visibility 10 km or more

METAR: BGGH 150150Z AUTO 01009KT 9999NDV BKN041/// M07/M12 Q1013 REFZDZ

Time: 23:19 (02:19 UTC)

Forecast

The report was made 9 hours and 8 minutes ago, at 17:11 UTC
Forecast valid from 14 at 18 UTC to 14 at 23 UTC
Wind 12 kt from the North
Visibility 10 km or more
Scattered clouds at a height of 2000 ft
Broken clouds at a height of 6000 ft
Temporary
from 14 at 18 UTC to 14 at 23 UTC
Visibility: 4000 m
Broken clouds at a height of 1000 ft
Scattered clouds at a height of 2500 ft, Towering cumulus.
light snow showers

TAF: BGGH 141711Z 1418/1423 35012KT 9999 SCT020 BKN060 TEMPO 1418/1423 4000 -SHSN BKN010 SCT025TCU

Weather observations and forecasts of more than 4000 airports (METAR and TAF reports).

The available stations are represented by yellow and red dots on the map.

Hover mouse over dot to see the name of the station.

Then click to see weather observations and forecasts.

To change the map : click on the green buttons with a black cross to zoom in, on the green button with a dash to zoom out, or on the green arrows for adjacent maps.


METAR-TAF: